createdAt,value
2019-06-26T00:00:26.571Z,43.73
2019-06-26T00:03:00.188Z,42.23
2019-06-26T00:05:30.523Z,44.08
2019-06-26T00:07:58.528Z,43.65
2019-06-26T00:10:27.881Z,43.20
2019-06-26T00:12:57.945Z,43.95
2019-06-26T00:15:26.129Z,44.70
2019-06-26T00:17:54.297Z,44.55
2019-06-26T00:20:22.508Z,45.78
2019-06-26T00:22:50.660Z,46.53
2019-06-26T00:25:18.965Z,47.10
2019-06-26T00:27:47.209Z,46.55
2019-06-26T00:30:15.509Z,48.00
2019-06-26T00:32:43.649Z,47.85
2019-06-26T00:35:11.819Z,48.15
2019-06-26T00:37:39.979Z,49.83
2019-06-26T00:40:08.335Z,52.73
2019-06-26T00:42:36.534Z,49.65
2019-06-26T00:45:04.848Z,51.00
2019-06-26T00:47:33.001Z,49.50
2019-06-26T00:50:01.193Z,56.25
2019-06-26T00:52:29.345Z,54.80
2019-06-26T00:54:57.557Z,56.73
2019-06-26T00:57:25.822Z,55.92
2019-06-26T00:59:53.971Z,52.10
2019-06-26T01:02:22.142Z,53.78
2019-06-26T01:04:50.321Z,57.93
2019-06-26T01:07:18.489Z,59.35
2019-06-26T01:09:46.637Z,59.53
2019-06-26T01:12:14.834Z,64.87
2019-06-26T01:14:42.975Z,63.48
2019-06-26T01:17:11.128Z,64.87
2019-06-26T01:19:39.300Z,62.62
2019-06-26T01:22:07.453Z,64.87
2019-06-26T01:24:35.606Z,69.00
2019-06-26T01:27:03.835Z,68.15
2019-06-26T01:29:32.769Z,66.97
2019-06-26T01:32:01.326Z,68.50
2019-06-26T01:34:30.286Z,72.58
2019-06-26T01:36:58.525Z,68.20
2019-06-26T01:39:26.679Z,68.10
2019-06-26T01:41:54.834Z,71.65
2019-06-26T01:44:23.025Z,62.85
2019-06-26T01:46:51.180Z,66.45
2019-06-26T01:49:19.330Z,59.42
2019-06-26T01:51:47.533Z,60.33
2019-06-26T01:54:15.674Z,58.98
2019-06-26T01:56:43.822Z,54.35
2019-06-26T01:59:12.023Z,55.08
2019-06-26T02:01:40.194Z,57.60
2019-06-26T02:04:08.346Z,60.43
2019-06-26T02:06:36.544Z,56.95
2019-06-26T02:09:05.447Z,57.93
2019-06-26T02:11:33.606Z,58.63
2019-06-26T02:14:01.793Z,57.10
2019-06-26T02:16:32.914Z,55.78
2019-06-26T02:19:01.070Z,57.43
2019-06-26T02:21:29.552Z,55.25
2019-06-26T02:23:57.807Z,52.98
2019-06-26T02:26:25.959Z,53.35
2019-06-26T02:28:54.136Z,51.15
2019-06-26T02:31:22.407Z,53.92
2019-06-26T02:33:50.571Z,50.17
2019-06-26T02:36:18.736Z,49.13
2019-06-26T02:38:46.932Z,50.48
2019-06-26T02:41:15.084Z,48.25
2019-06-26T02:43:43.244Z,49.53
2019-06-26T02:46:12.128Z,49.35
2019-06-26T02:48:40.284Z,47.55
2019-06-26T02:51:08.421Z,46.50
2019-06-26T02:53:36.642Z,40.05
2019-06-26T02:56:04.801Z,36.88
2019-06-26T02:58:32.985Z,34.63
2019-06-26T03:01:01.180Z,35.10
2019-06-26T03:03:29.319Z,31.42
2019-06-26T03:05:57.480Z,30.35
2019-06-26T03:08:25.680Z,32.15
2019-06-26T03:10:53.822Z,30.20
2019-06-26T03:13:22.009Z,24.75
2019-06-26T03:15:50.753Z,28.55
2019-06-26T03:18:19.142Z,27.13
2019-06-26T03:20:50.301Z,25.32
2019-06-26T03:23:18.481Z,22.77
2019-06-26T03:25:46.699Z,25.60
2019-06-26T03:28:14.862Z,25.72
2019-06-26T03:30:43.021Z,27.05
2019-06-26T03:33:11.222Z,24.23
2019-06-26T03:35:40.810Z,25.12
2019-06-26T03:38:09.236Z,25.62
2019-06-26T03:40:37.472Z,28.85
2019-06-26T03:43:05.621Z,24.37
2019-06-26T03:45:33.753Z,22.42
2019-06-26T03:48:01.938Z,27.30
2019-06-26T03:50:30.030Z,25.50
2019-06-26T03:52:58.237Z,25.15
2019-06-26T03:55:26.388Z,23.10
2019-06-26T03:57:54.523Z,22.87
2019-06-26T04:00:38.440Z,27.20
2019-06-26T04:03:06.668Z,22.00
2019-06-26T04:05:34.828Z,21.87
2019-06-26T04:08:03.037Z,27.22
2019-06-26T04:10:31.185Z,27.65
2019-06-26T04:12:59.290Z,29.75
2019-06-26T04:15:40.802Z,27.67
2019-06-26T04:17:57.333Z,21.07
2019-06-26T04:20:25.465Z,28.55
2019-06-26T04:22:53.587Z,29.95
2019-06-26T04:25:21.733Z,27.85
2019-06-26T04:27:49.952Z,28.38
2019-06-26T04:30:18.440Z,26.60
2019-06-26T04:32:46.570Z,30.77
2019-06-26T04:35:15.516Z,28.55
2019-06-26T04:37:43.633Z,27.50
2019-06-26T04:40:11.973Z,26.57
2019-06-26T04:42:40.213Z,23.67
2019-06-26T04:45:08.904Z,28.55
2019-06-26T04:47:37.064Z,24.25
2019-06-26T04:50:06.971Z,22.13
2019-06-26T04:52:35.135Z,26.85
2019-06-26T04:55:03.371Z,26.45
2019-06-26T04:57:31.549Z,25.70
2019-06-26T04:59:59.683Z,22.32
2019-06-26T05:02:27.832Z,26.70
2019-06-26T05:04:56.027Z,24.45
2019-06-26T05:07:24.155Z,24.02
2019-06-26T05:09:52.278Z,26.12
2019-06-26T05:12:20.446Z,30.37
2019-06-26T05:14:48.603Z,26.35
2019-06-26T05:17:16.721Z,29.18
2019-06-26T05:19:44.893Z,25.17
2019-06-26T05:22:13.031Z,28.50
2019-06-26T05:24:41.247Z,30.72
2019-06-26T05:27:09.370Z,27.35
2019-06-26T05:29:37.503Z,28.75
2019-06-26T05:32:05.688Z,28.23
2019-06-26T05:34:33.854Z,29.20
2019-06-26T05:37:01.967Z,27.45
2019-06-26T05:39:30.137Z,26.17
2019-06-26T05:41:58.292Z,25.20
2019-06-26T05:44:26.494Z,24.12
2019-06-26T05:46:54.681Z,22.75
2019-06-26T05:49:22.852Z,24.92
2019-06-26T05:51:50.988Z,28.95
2019-06-26T05:54:19.189Z,28.47
2019-06-26T05:56:48.040Z,26.62
2019-06-26T05:59:16.184Z,23.62
2019-06-26T06:01:44.397Z,25.50
2019-06-26T06:04:12.531Z,21.15
2019-06-26T06:06:42.302Z,31.07
2019-06-26T06:09:10.557Z,31.27
2019-06-26T06:11:38.777Z,27.25
2019-06-26T06:14:06.913Z,27.73
2019-06-26T06:16:46.792Z,28.42
2019-06-26T06:19:04.957Z,24.70
2019-06-26T06:21:33.116Z,25.12
2019-06-26T06:24:01.311Z,27.15
2019-06-26T06:26:29.438Z,21.73
2019-06-26T06:28:57.565Z,21.05
2019-06-26T06:31:25.746Z,17.92
2019-06-26T06:33:53.878Z,17.30
2019-06-26T06:36:22.045Z,17.48
2019-06-26T06:38:50.275Z,16.70
2019-06-26T06:41:18.391Z,16.35
2019-06-26T06:43:46.563Z,15.15
2019-06-26T06:46:14.771Z,15.58
2019-06-26T06:48:43.593Z,15.60
2019-06-26T06:51:11.774Z,15.95
2019-06-26T06:53:39.939Z,20.62
2019-06-26T06:56:08.089Z,21.62
2019-06-26T06:58:36.239Z,19.27
2019-06-26T07:01:04.418Z,25.62
2019-06-26T07:03:32.732Z,25.35
2019-06-26T07:06:00.866Z,25.00
2019-06-26T07:08:29.041Z,31.12
2019-06-26T07:10:57.200Z,30.02
2019-06-26T07:13:25.345Z,25.55
2019-06-26T07:15:53.548Z,21.87
2019-06-26T07:18:21.700Z,22.02
2019-06-26T07:20:49.922Z,23.20
2019-06-26T07:23:18.131Z,24.75
2019-06-26T07:25:46.277Z,27.32
2019-06-26T07:28:14.564Z,28.85
2019-06-26T07:30:42.787Z,32.78
2019-06-26T07:33:10.944Z,27.27
2019-06-26T07:35:39.081Z,33.23
2019-06-26T07:38:07.244Z,33.40
2019-06-26T07:40:35.436Z,30.80
2019-06-26T07:43:03.571Z,29.65
2019-06-26T07:45:31.750Z,33.98
2019-06-26T07:47:59.905Z,36.53
2019-06-26T07:50:28.037Z,36.65
2019-06-26T07:52:56.214Z,33.53
2019-06-26T07:55:24.361Z,32.80
2019-06-26T07:57:52.529Z,43.83
2019-06-26T08:00:20.738Z,51.25
2019-06-26T08:02:48.880Z,52.03
2019-06-26T08:05:17.028Z,46.18
2019-06-26T08:07:45.213Z,44.05
2019-06-26T08:10:14.436Z,40.30
2019-06-26T08:12:42.582Z,32.93
2019-06-26T08:15:10.764Z,30.05
2019-06-26T08:17:38.896Z,37.95
2019-06-26T08:20:07.643Z,34.92
2019-06-26T08:22:35.830Z,36.95
2019-06-26T08:25:04.357Z,34.18
2019-06-26T08:27:32.506Z,40.75
2019-06-26T08:30:00.699Z,39.95
2019-06-26T08:32:28.933Z,37.75
2019-06-26T08:34:57.055Z,35.13
2019-06-26T08:37:25.267Z,32.53
2019-06-26T08:39:53.467Z,38.15
2019-06-26T08:42:21.586Z,36.48
2019-06-26T08:44:49.725Z,35.73
2019-06-26T08:47:17.929Z,33.25
2019-06-26T08:49:46.088Z,30.52
2019-06-26T08:52:14.918Z,28.27
2019-06-26T08:54:43.185Z,26.48
2019-06-26T08:57:11.328Z,27.67
2019-06-26T08:59:39.457Z,28.27
2019-06-26T09:02:07.628Z,26.60
2019-06-26T09:04:35.758Z,24.00
2019-06-26T09:07:03.873Z,22.82
2019-06-26T09:09:32.031Z,24.12
2019-06-26T09:12:00.195Z,22.13
2019-06-26T09:14:28.321Z,24.50
2019-06-26T09:16:56.474Z,28.32
2019-06-26T09:19:25.042Z,22.22
2019-06-26T09:21:55.257Z,25.52
2019-06-26T09:24:23.370Z,20.90
2019-06-26T09:26:51.532Z,23.38
2019-06-26T09:29:22.800Z,23.92
2019-06-26T09:31:49.610Z,28.40
2019-06-26T09:34:17.768Z,31.55
2019-06-26T09:36:45.917Z,27.98
2019-06-26T09:39:14.047Z,29.27
2019-06-26T09:41:42.278Z,33.60
2019-06-26T09:44:10.424Z,24.65
2019-06-26T09:46:38.570Z,29.48
2019-06-26T09:49:06.738Z,26.73
2019-06-26T09:51:34.890Z,22.75
2019-06-26T09:54:03.340Z,26.48
2019-06-26T09:56:31.616Z,27.10
2019-06-26T09:58:59.766Z,19.57
2019-06-26T10:01:27.934Z,18.00
2019-06-26T10:03:56.140Z,23.75
2019-06-26T10:06:24.329Z,18.98
2019-06-26T10:08:54.428Z,18.70
2019-06-26T10:11:22.399Z,18.20
2019-06-26T10:13:50.523Z,19.98
2019-06-26T10:16:18.676Z,16.57
2019-06-26T10:18:46.859Z,15.68
2019-06-26T10:21:14.980Z,16.27
2019-06-26T10:23:43.162Z,17.17
2019-06-26T10:26:11.354Z,17.48
2019-06-26T10:28:39.491Z,8.70
2019-06-26T10:31:07.634Z,9.90
2019-06-26T10:33:35.800Z,11.63
2019-06-26T10:36:03.991Z,13.48
2019-06-26T10:38:32.166Z,10.50
2019-06-26T10:41:00.363Z,17.32
2019-06-26T10:43:28.504Z,11.55
2019-06-26T10:45:56.639Z,12.93
2019-06-26T10:48:24.820Z,14.78
2019-06-26T10:50:58.550Z,14.05
2019-06-26T10:53:22.907Z,15.48
2019-06-26T10:55:51.109Z,13.80
2019-06-26T10:58:19.287Z,14.05
2019-06-26T11:00:47.421Z,15.53
2019-06-26T11:03:15.632Z,10.00
2019-06-26T11:05:43.768Z,12.55
2019-06-26T11:08:11.908Z,11.43
2019-06-26T11:10:40.125Z,12.75
2019-06-26T11:13:08.274Z,17.48
2019-06-26T11:15:36.497Z,16.48
2019-06-26T11:18:05.499Z,17.87
2019-06-26T11:20:33.647Z,13.75
2019-06-26T11:23:03.019Z,18.50
2019-06-26T11:25:31.166Z,12.70
2019-06-26T11:27:59.324Z,14.63
2019-06-26T11:30:27.568Z,11.60
2019-06-26T11:32:55.750Z,18.60
2019-06-26T11:35:23.882Z,13.72
2019-06-26T11:37:52.050Z,12.47
2019-06-26T11:40:24.385Z,14.85
2019-06-26T11:43:00.574Z,14.73
2019-06-26T11:45:34.947Z,12.85
2019-06-26T11:48:03.484Z,10.35
2019-06-26T11:50:31.688Z,8.63
2019-06-26T11:52:59.985Z,9.10
2019-06-26T11:55:28.103Z,9.53
2019-06-26T11:57:58.672Z,9.25
2019-06-26T12:00:26.879Z,6.75
2019-06-26T12:02:55.012Z,10.45
2019-06-26T12:05:23.110Z,8.90
2019-06-26T12:07:51.482Z,14.98
2019-06-26T12:10:20.950Z,11.10
2019-06-26T12:12:49.116Z,9.25
2019-06-26T12:15:19.279Z,9.43
2019-06-26T12:20:19.126Z,9.63
2019-06-26T12:25:12.090Z,7.78
2019-06-26T12:27:40.279Z,11.20
2019-06-26T12:30:09.367Z,9.35
2019-06-26T12:32:42.163Z,12.18
2019-06-26T12:35:08.187Z,10.30
2019-06-26T12:37:38.003Z,11.55
2019-06-26T12:40:18.453Z,12.95
2019-06-26T12:42:46.650Z,10.68
2019-06-26T12:45:15.167Z,10.38
2019-06-26T12:47:43.402Z,11.30
2019-06-26T12:50:12.266Z,7.58
2019-06-26T12:52:40.659Z,8.20
2019-06-26T12:55:09.009Z,8.33
2019-06-26T12:57:37.150Z,12.07
2019-06-26T13:00:06.741Z,6.95
2019-06-26T13:02:34.932Z,7.83
2019-06-26T13:05:04.026Z,11.08
2019-06-26T13:07:32.560Z,8.25
2019-06-26T13:10:07.476Z,10.85
2019-06-26T13:12:35.924Z,7.62
2019-06-26T13:15:04.285Z,9.85
2019-06-26T13:17:35.506Z,13.68
2019-06-26T13:20:04.180Z,10.93
2019-06-26T13:22:34.383Z,8.25
2019-06-26T13:27:32.276Z,15.28
2019-06-26T13:30:00.796Z,7.33
2019-06-26T13:32:31.226Z,7.67
2019-06-26T13:35:01.168Z,8.30
2019-06-26T13:37:31.817Z,6.10
2019-06-26T13:39:59.979Z,8.03
2019-06-26T13:42:28.112Z,15.78
2019-06-26T13:44:56.306Z,8.20
2019-06-26T13:47:27.012Z,13.72
2019-06-26T13:49:55.156Z,8.13
2019-06-26T13:52:23.311Z,5.70
2019-06-26T13:54:51.438Z,6.60
2019-06-26T13:57:19.611Z,11.22
2019-06-26T13:59:47.742Z,6.22
2019-06-26T14:02:19.612Z,8.28
2019-06-26T14:04:45.850Z,10.45
2019-06-26T14:07:14.053Z,9.98
2019-06-26T14:09:42.175Z,6.20
2019-06-26T14:12:12.604Z,6.78
2019-06-26T14:14:56.291Z,7.55
2019-06-26T14:17:10.715Z,5.85
2019-06-26T14:19:38.929Z,11.20
2019-06-26T14:22:07.187Z,5.45
2019-06-26T14:24:35.348Z,8.98
2019-06-26T14:27:03.525Z,6.00
2019-06-26T14:29:31.684Z,11.73
2019-06-26T14:32:01.121Z,5.78
2019-06-26T14:34:29.781Z,9.10
2019-06-26T14:36:58.080Z,11.50
2019-06-26T14:39:26.322Z,8.13
2019-06-26T14:41:54.461Z,11.55
2019-06-26T14:44:23.192Z,8.00
2019-06-26T14:46:51.343Z,6.80
2019-06-26T14:49:19.503Z,6.10
2019-06-26T14:51:48.118Z,7.00
2019-06-26T14:54:16.374Z,8.18
2019-06-26T14:56:44.521Z,5.03
2019-06-26T14:59:12.759Z,8.63
2019-06-26T15:01:40.961Z,6.10
2019-06-26T15:04:09.119Z,4.25
2019-06-26T15:06:37.272Z,4.30
2019-06-26T15:09:06.160Z,7.45
2019-06-26T15:11:34.286Z,7.95
2019-06-26T15:14:02.586Z,6.30
2019-06-26T15:16:30.740Z,8.48
2019-06-26T15:18:58.859Z,5.85
2019-06-26T15:21:27.026Z,9.18
2019-06-26T15:23:55.205Z,7.55
2019-06-26T15:26:23.339Z,4.67
2019-06-26T15:28:51.502Z,6.50
2019-06-26T15:31:19.651Z,6.90
2019-06-26T15:33:47.805Z,8.55
2019-06-26T15:36:16.007Z,5.65
2019-06-26T15:38:44.180Z,9.73
2019-06-26T15:41:12.319Z,5.33
2019-06-26T15:43:40.672Z,5.92
2019-06-26T15:46:08.867Z,7.10
2019-06-26T15:48:37.037Z,9.05
2019-06-26T15:51:05.179Z,10.65
2019-06-26T15:53:33.340Z,6.90
2019-06-26T15:56:01.497Z,11.95
2019-06-26T15:58:29.691Z,9.95
2019-06-26T16:00:57.853Z,8.48
2019-06-26T16:03:25.994Z,7.35
2019-06-26T16:05:54.231Z,9.38
2019-06-26T16:08:22.420Z,8.38
2019-06-26T16:10:50.550Z,6.58
2019-06-26T16:13:18.785Z,3.33
2019-06-26T16:15:47.051Z,4.05
2019-06-26T16:18:15.197Z,7.65
2019-06-26T16:20:43.380Z,8.60
2019-06-26T16:23:11.508Z,8.20
2019-06-26T16:25:39.662Z,11.53
2019-06-26T16:28:07.845Z,6.30
2019-06-26T16:30:35.961Z,6.12
2019-06-26T16:33:04.143Z,7.65
2019-06-26T16:35:32.294Z,8.90
2019-06-26T16:38:00.446Z,9.78
2019-06-26T16:40:28.666Z,6.35
2019-06-26T16:42:56.807Z,7.87
2019-06-26T16:45:24.939Z,4.10
2019-06-26T16:47:53.185Z,10.03
2019-06-26T16:50:21.409Z,7.10
2019-06-26T16:52:50.309Z,7.78
2019-06-26T16:55:18.764Z,5.70
2019-06-26T16:57:46.948Z,7.67
2019-06-26T17:00:15.200Z,9.53
2019-06-26T17:02:43.344Z,5.30
2019-06-26T17:05:12.445Z,6.20
2019-06-26T17:07:40.622Z,8.33
2019-06-26T17:10:09.310Z,8.75
2019-06-26T17:12:37.492Z,6.12
2019-06-26T17:15:05.726Z,7.33
2019-06-26T17:17:33.882Z,7.05
2019-06-26T17:20:02.046Z,13.85
2019-06-26T17:22:31.426Z,10.80
2019-06-26T17:24:59.713Z,8.80
2019-06-26T17:27:27.897Z,7.90
2019-06-26T17:29:56.075Z,14.45
2019-06-26T17:32:24.253Z,15.10
2019-06-26T17:34:52.442Z,17.30
2019-06-26T17:37:20.568Z,10.95
2019-06-26T17:39:48.696Z,10.18
2019-06-26T17:42:17.035Z,9.78
2019-06-26T17:44:45.195Z,10.32
2019-06-26T17:47:13.335Z,12.85
2019-06-26T17:49:41.516Z,9.03
2019-06-26T17:52:09.766Z,9.73
2019-06-26T17:54:37.988Z,8.53
2019-06-26T17:57:06.202Z,7.78
2019-06-26T17:59:37.397Z,8.83
2019-06-26T18:02:05.554Z,12.85
2019-06-26T18:04:33.753Z,12.35
2019-06-26T18:07:01.990Z,8.70
2019-06-26T18:09:30.127Z,15.80
2019-06-26T18:11:58.282Z,12.55
2019-06-26T18:14:26.444Z,13.20
2019-06-26T18:16:54.640Z,13.20
2019-06-26T18:19:22.868Z,11.75
2019-06-26T18:21:51.037Z,13.60
2019-06-26T18:24:19.279Z,11.80
2019-06-26T18:26:47.461Z,9.73
2019-06-26T18:29:15.599Z,15.10
2019-06-26T18:31:43.758Z,13.75
2019-06-26T18:34:11.953Z,11.00
2019-06-26T18:36:40.108Z,10.68
2019-06-26T18:39:08.601Z,12.13
2019-06-26T18:41:37.303Z,7.60
2019-06-26T18:44:05.471Z,11.68
2019-06-26T18:46:33.686Z,14.35
2019-06-26T18:49:01.893Z,14.23
2019-06-26T18:51:30.083Z,7.35
2019-06-26T18:54:01.020Z,12.20
2019-06-26T18:56:28.188Z,12.78
2019-06-26T18:58:56.345Z,8.88
2019-06-26T19:01:24.544Z,11.57
2019-06-26T19:03:52.699Z,8.50
2019-06-26T19:06:20.860Z,17.40
2019-06-26T19:08:49.075Z,10.25
2019-06-26T19:11:17.207Z,7.78
2019-06-26T19:13:45.368Z,6.03
2019-06-26T19:16:13.551Z,7.72
2019-06-26T19:18:41.683Z,7.28
2019-06-26T19:21:09.998Z,6.05
2019-06-26T19:23:40.024Z,7.95
2019-06-26T19:26:08.175Z,9.35
2019-06-26T19:28:38.399Z,15.05
2019-06-26T19:31:06.588Z,8.40
2019-06-26T19:33:34.743Z,7.53
2019-06-26T19:36:02.973Z,14.80
2019-06-26T19:38:31.193Z,12.18
2019-06-26T19:40:59.289Z,13.40
2019-06-26T19:43:27.447Z,13.15
2019-06-26T19:45:55.677Z,12.63
2019-06-26T19:48:23.819Z,10.35
2019-06-26T19:50:52.002Z,8.40
2019-06-26T19:53:20.154Z,7.50
2019-06-26T19:55:48.465Z,8.23
2019-06-26T19:58:16.605Z,6.45
2019-06-26T20:00:44.992Z,7.15
2019-06-26T20:03:13.231Z,7.33
2019-06-26T20:05:41.400Z,5.17
2019-06-26T20:08:09.563Z,9.73
2019-06-26T20:10:37.718Z,5.75
2019-06-26T20:13:06.023Z,7.80
2019-06-26T20:15:34.238Z,6.30
2019-06-26T20:18:04.332Z,8.28
2019-06-26T20:20:32.229Z,10.43
2019-06-26T20:23:00.388Z,10.75
2019-06-26T20:25:28.530Z,11.68
2019-06-26T20:27:57.395Z,10.50
2019-06-26T20:30:28.777Z,13.15
2019-06-26T20:32:57.030Z,10.58
2019-06-26T20:35:25.147Z,5.97
2019-06-26T20:37:53.291Z,14.23
2019-06-26T20:40:21.437Z,8.60
2019-06-26T20:42:49.601Z,12.68
2019-06-26T20:45:17.730Z,12.85
2019-06-26T20:47:45.881Z,12.03
2019-06-26T20:50:14.203Z,11.75
2019-06-26T20:52:42.345Z,14.60
2019-06-26T20:55:10.585Z,15.10
2019-06-26T20:57:38.807Z,12.35
2019-06-26T21:00:07.421Z,11.25
2019-06-26T21:02:35.591Z,17.42
2019-06-26T21:05:03.767Z,13.43
2019-06-26T21:07:31.943Z,15.70
2019-06-26T21:10:00.148Z,20.52
2019-06-26T21:12:28.262Z,19.17
2019-06-26T21:14:56.431Z,21.77
2019-06-26T21:17:25.748Z,14.68
2019-06-26T21:19:54.180Z,15.60
2019-06-26T21:22:22.362Z,7.53
2019-06-26T21:24:50.541Z,11.80
2019-06-26T21:27:19.255Z,11.03
2019-06-26T21:29:47.423Z,12.07
2019-06-26T21:32:15.565Z,15.78
2019-06-26T21:34:43.734Z,12.68
2019-06-26T21:37:11.860Z,12.98
2019-06-26T21:39:39.993Z,15.18
2019-06-26T21:42:08.167Z,12.50
2019-06-26T21:44:36.334Z,10.55
2019-06-26T21:47:04.477Z,15.98
2019-06-26T21:49:32.601Z,13.58
2019-06-26T21:52:00.786Z,15.23
2019-06-26T21:54:28.967Z,14.33
2019-06-26T21:56:57.100Z,11.28
2019-06-26T21:59:27.388Z,15.70
2019-06-26T22:02:25.699Z,11.93
2019-06-26T22:04:25.351Z,17.35
2019-06-26T22:06:54.958Z,18.17
2019-06-26T22:09:24.626Z,12.40
2019-06-26T22:11:52.757Z,11.53
2019-06-26T22:14:21.119Z,12.05
2019-06-26T22:16:49.393Z,11.97
2019-06-26T22:19:17.579Z,19.70
2019-06-26T22:21:45.758Z,12.00
2019-06-26T22:24:16.387Z,11.97
2019-06-26T22:26:44.751Z,13.93
2019-06-26T22:29:13.095Z,15.10
2019-06-26T22:31:41.296Z,11.65
2019-06-26T22:34:12.528Z,18.57
2019-06-26T22:36:51.393Z,13.93
2019-06-26T22:39:22.345Z,11.33
2019-06-26T22:41:53.616Z,9.80
2019-06-26T22:44:21.838Z,10.90
2019-06-26T22:46:52.106Z,13.08
2019-06-26T22:49:20.292Z,12.18
2019-06-26T22:51:49.583Z,9.63
2019-06-26T22:54:19.872Z,21.10
2019-06-26T22:56:49.575Z,20.02
2019-06-26T22:59:17.695Z,15.95
2019-06-26T23:01:48.042Z,12.95
2019-06-26T23:04:18.772Z,16.93
2019-06-26T23:06:48.261Z,13.18
2019-06-26T23:09:21.272Z,16.70
2019-06-26T23:14:14.138Z,16.48
2019-06-26T23:16:42.322Z,23.52
2019-06-26T23:19:14.818Z,16.85
2019-06-26T23:21:41.690Z,15.10
2019-06-26T23:24:09.825Z,18.27
2019-06-26T23:26:37.938Z,17.70
2019-06-26T23:29:06.118Z,16.10
2019-06-26T23:31:34.257Z,15.78
2019-06-26T23:34:09.894Z,14.43
2019-06-26T23:36:36.863Z,11.68
2019-06-26T23:39:05.246Z,11.45
2019-06-26T23:41:33.372Z,15.58
2019-06-26T23:44:01.494Z,13.48
2019-06-26T23:46:29.676Z,13.90
2019-06-26T23:48:57.890Z,14.47
2019-06-26T23:51:26.048Z,15.53
2019-06-26T23:53:54.230Z,14.58
2019-06-26T23:56:22.344Z,14.70
2019-06-26T23:58:50.528Z,15.15
